createdAt,value
2019-04-28T00:01:16.598Z,2.60
2019-04-28T00:03:45.064Z,2.63
2019-04-28T00:06:13.489Z,2.40
2019-04-28T00:08:42.857Z,2.50
2019-04-28T00:11:11.791Z,2.37
2019-04-28T00:13:41.773Z,2.70
2019-04-28T00:16:11.568Z,3.37
2019-04-28T00:18:41.512Z,3.27
2019-04-28T00:21:11.872Z,3.10
2019-04-28T00:23:44.536Z,3.50
2019-04-28T00:26:14.743Z,3.37
2019-04-28T00:28:43.319Z,3.27
2019-04-28T00:31:11.771Z,3.90
2019-04-28T00:33:41.014Z,4.87
2019-04-28T00:36:11.545Z,5.27
2019-04-28T00:38:41.492Z,5.77
2019-04-28T00:41:11.003Z,6.00
2019-04-28T00:43:39.588Z,5.83
2019-04-28T00:46:11.008Z,5.53
2019-04-28T00:48:40.933Z,5.97
2019-04-28T00:51:11.486Z,6.03
2019-04-28T00:53:40.940Z,6.10
2019-04-28T00:56:09.549Z,6.37
2019-04-28T00:58:38.131Z,6.23
2019-04-28T01:01:08.371Z,5.83
2019-04-28T01:03:36.943Z,6.50
2019-04-28T01:06:05.532Z,6.07
2019-04-28T01:08:34.013Z,6.43
2019-04-28T01:11:02.522Z,6.30
2019-04-28T01:13:31.936Z,6.70
2019-04-28T01:16:11.235Z,6.60
2019-04-28T01:18:44.027Z,6.97
2019-04-28T01:21:12.521Z,5.73
2019-04-28T01:23:41.015Z,6.03
2019-04-28T01:26:09.976Z,6.40
2019-04-28T01:28:39.795Z,5.53
2019-04-28T01:31:13.040Z,5.67
2019-04-28T01:33:59.891Z,5.60
2019-04-28T01:36:30.137Z,5.73
2019-04-28T01:38:59.976Z,6.67
2019-04-28T01:41:29.652Z,6.70
2019-04-28T01:44:00.082Z,5.90
2019-04-28T01:46:29.817Z,6.30
2019-04-28T01:48:59.906Z,5.97
2019-04-28T01:51:30.372Z,5.73
2019-04-28T01:54:00.167Z,5.63
2019-04-28T01:56:30.416Z,5.13
2019-04-28T01:59:00.277Z,5.53
2019-04-28T02:01:30.182Z,5.20
2019-04-28T02:04:00.258Z,5.40
2019-04-28T02:06:29.983Z,4.87
2019-04-28T02:09:00.668Z,4.50
2019-04-28T02:11:29.569Z,4.60
2019-04-28T02:13:59.727Z,4.50
2019-04-28T02:16:29.613Z,4.23
2019-04-28T02:18:59.742Z,4.13
2019-04-28T02:21:39.549Z,4.57
2019-04-28T02:24:26.539Z,4.23
2019-04-28T02:26:55.028Z,4.23
2019-04-28T02:29:23.477Z,4.27
2019-04-28T02:31:51.976Z,4.20
2019-04-28T02:34:21.126Z,4.40
2019-04-28T02:36:50.596Z,4.37
2019-04-28T02:39:20.794Z,3.87
2019-04-28T02:41:51.239Z,4.00
2019-04-28T02:44:23.005Z,4.03
2019-04-28T02:46:50.699Z,4.10
2019-04-28T02:49:23.787Z,4.10
2019-04-28T02:52:10.753Z,3.73
2019-04-28T02:54:40.390Z,3.90
2019-04-28T02:57:10.749Z,3.27
2019-04-28T02:59:40.977Z,3.67
2019-04-28T03:02:10.543Z,4.07
2019-04-28T03:04:40.831Z,3.27
2019-04-28T03:07:11.444Z,3.30
2019-04-28T03:09:40.400Z,4.00
2019-04-28T03:12:11.228Z,3.60
2019-04-28T03:14:43.465Z,3.43
2019-04-28T03:17:10.935Z,3.47
2019-04-28T03:19:41.716Z,3.70
2019-04-28T03:22:11.439Z,3.93
2019-04-28T03:24:41.313Z,3.90
2019-04-28T03:27:11.583Z,3.63
2019-04-28T03:29:41.638Z,3.87
2019-04-28T03:32:35.966Z,4.20
2019-04-28T03:34:53.739Z,4.53
2019-04-28T03:37:23.481Z,4.47
2019-04-28T03:39:50.444Z,4.80
2019-04-28T03:42:21.648Z,5.60
2019-04-28T03:44:51.102Z,5.80
2019-04-28T03:47:21.021Z,5.57
2019-04-28T03:49:50.452Z,6.43
2019-04-28T03:52:21.367Z,6.00
2019-04-28T03:54:50.865Z,5.83
2019-04-28T03:57:21.481Z,6.30
2019-04-28T03:59:51.146Z,5.83
2019-04-28T04:02:22.955Z,6.20
2019-04-28T04:04:52.734Z,6.30
2019-04-28T04:07:21.576Z,6.37
2019-04-28T04:09:54.966Z,6.63
2019-04-28T04:12:43.423Z,6.60
2019-04-28T04:15:16.642Z,6.67
2019-04-28T04:17:50.985Z,5.70
2019-04-28T04:20:23.807Z,5.90
2019-04-28T04:22:52.365Z,6.00
2019-04-28T04:25:20.879Z,5.67
2019-04-28T04:27:50.194Z,5.53
2019-04-28T04:30:20.791Z,5.33
2019-04-28T04:32:50.627Z,6.43
2019-04-28T04:35:21.461Z,5.43
2019-04-28T04:37:50.360Z,6.33
2019-04-28T04:40:21.001Z,6.00
2019-04-28T04:42:50.207Z,6.10
2019-04-28T04:45:20.278Z,6.83
2019-04-28T04:47:50.429Z,5.87
2019-04-28T04:50:20.926Z,6.60
2019-04-28T04:52:50.243Z,6.30
2019-04-28T04:55:21.056Z,5.53
2019-04-28T04:57:50.710Z,6.60
2019-04-28T05:00:21.169Z,6.97
2019-04-28T05:03:00.868Z,5.20
2019-04-28T05:05:36.817Z,5.30
2019-04-28T05:08:05.340Z,5.43
2019-04-28T05:10:33.805Z,5.00
2019-04-28T05:13:02.290Z,4.67
2019-04-28T05:15:30.779Z,5.20
2019-04-28T05:18:00.228Z,4.93
2019-04-28T05:20:30.255Z,4.50
2019-04-28T05:23:00.725Z,4.60
2019-04-28T05:25:33.307Z,4.43
2019-04-28T05:28:03.017Z,5.13
2019-04-28T05:30:34.962Z,3.70
2019-04-28T05:33:06.761Z,4.63
2019-04-28T05:35:35.785Z,3.73
2019-04-28T05:38:04.561Z,4.13
2019-04-28T05:40:34.772Z,3.90
2019-04-28T05:43:03.318Z,3.73
2019-04-28T05:45:32.344Z,3.53
2019-04-28T05:48:01.328Z,4.27
2019-04-28T05:50:33.940Z,3.60
2019-04-28T05:53:04.086Z,3.53
2019-04-28T05:55:50.169Z,3.53
2019-04-28T05:58:23.416Z,3.67
2019-04-28T06:01:02.046Z,3.80
2019-04-28T06:03:32.266Z,3.30
2019-04-28T06:06:00.876Z,4.77
2019-04-28T06:08:31.002Z,3.70
2019-04-28T06:10:59.954Z,3.87
2019-04-28T06:13:30.216Z,4.43
2019-04-28T06:15:59.857Z,4.53
2019-04-28T06:18:28.519Z,4.70
2019-04-28T06:20:57.035Z,4.50
2019-04-28T06:23:25.554Z,4.43
2019-04-28T06:25:54.108Z,4.73
2019-04-28T06:28:22.744Z,5.20
2019-04-28T06:30:51.175Z,5.07
2019-04-28T06:33:19.634Z,4.63
2019-04-28T06:35:48.056Z,4.57
2019-04-28T06:38:16.549Z,4.83
2019-04-28T06:40:45.062Z,4.83
2019-04-28T06:43:13.503Z,4.70
2019-04-28T06:45:41.970Z,5.60
2019-04-28T06:48:10.414Z,4.70
2019-04-28T06:50:38.908Z,4.93
2019-04-28T06:53:07.361Z,5.43
2019-04-28T06:55:35.789Z,4.73
2019-04-28T06:58:04.246Z,5.40
2019-04-28T07:00:32.676Z,5.00
2019-04-28T07:03:01.125Z,5.43
2019-04-28T07:05:29.566Z,6.43
2019-04-28T07:07:58.031Z,5.87
2019-04-28T07:10:26.536Z,5.90
2019-04-28T07:12:55.063Z,6.07
2019-04-28T07:15:23.536Z,6.30
2019-04-28T07:17:52.082Z,7.40
2019-04-28T07:20:38.371Z,7.63
2019-04-28T07:23:08.026Z,7.07
2019-04-28T07:25:36.492Z,6.70
2019-04-28T07:28:05.016Z,7.00
2019-04-28T07:30:34.010Z,7.13
2019-04-28T07:33:02.481Z,7.40
2019-04-28T07:35:31.073Z,7.07
2019-04-28T07:37:59.525Z,7.23
2019-04-28T07:40:28.015Z,7.90
2019-04-28T07:42:56.575Z,8.50
2019-04-28T07:45:25.046Z,8.63
2019-04-28T07:47:53.584Z,8.23
2019-04-28T07:50:22.142Z,7.77
2019-04-28T07:52:55.309Z,7.10
2019-04-28T07:55:23.812Z,6.83
2019-04-28T07:57:52.610Z,6.20
2019-04-28T08:00:28.907Z,6.87
2019-04-28T08:02:57.445Z,7.30
2019-04-28T08:05:26.032Z,5.47
2019-04-28T08:07:54.653Z,6.07
2019-04-28T08:10:23.246Z,5.70
2019-04-28T08:12:51.718Z,6.97
2019-04-28T08:15:20.254Z,6.17
2019-04-28T08:17:48.781Z,5.63
2019-04-28T08:20:17.380Z,7.30
2019-04-28T08:22:45.868Z,5.03
2019-04-28T08:25:14.351Z,5.60
2019-04-28T08:27:42.808Z,6.13
2019-04-28T08:30:11.657Z,6.00
2019-04-28T08:32:57.709Z,6.03
2019-04-28T08:35:26.296Z,5.93
2019-04-28T08:37:54.760Z,5.40
2019-04-28T08:40:23.398Z,5.23
2019-04-28T08:42:51.850Z,5.30
2019-04-28T08:45:20.410Z,5.57
2019-04-28T08:47:48.874Z,4.90
2019-04-28T08:50:17.515Z,5.67
2019-04-28T08:52:46.066Z,5.67
2019-04-28T08:55:14.530Z,5.10
2019-04-28T08:57:43.051Z,4.80
2019-04-28T09:00:13.700Z,5.30
2019-04-28T09:02:42.160Z,4.70
2019-04-28T09:05:10.870Z,4.83
2019-04-28T09:07:39.305Z,4.57
2019-04-28T09:10:07.902Z,5.90
2019-04-28T09:12:36.367Z,5.33
2019-04-28T09:15:06.753Z,6.00
2019-04-28T09:17:35.193Z,4.87
2019-04-28T09:20:04.986Z,5.63
2019-04-28T09:22:33.458Z,5.07
2019-04-28T09:25:01.904Z,5.07
2019-04-28T09:27:30.381Z,6.50
2019-04-28T09:29:58.838Z,6.37
2019-04-28T09:32:27.324Z,6.33
2019-04-28T09:34:55.766Z,6.90
2019-04-28T09:37:24.454Z,5.60
2019-04-28T09:39:54.544Z,6.40
2019-04-28T09:42:30.571Z,5.70
2019-04-28T09:45:03.753Z,7.00
2019-04-28T09:47:32.233Z,6.07
2019-04-28T09:50:00.666Z,6.57
2019-04-28T09:52:32.142Z,6.37
2019-04-28T09:55:00.607Z,6.17
2019-04-28T09:57:29.065Z,6.17
2019-04-28T09:59:57.598Z,6.50
2019-04-28T10:02:26.121Z,5.70
2019-04-28T10:04:54.549Z,6.20
2019-04-28T10:07:23.058Z,6.40
2019-04-28T10:09:51.537Z,7.37
2019-04-28T10:12:27.005Z,5.60
2019-04-28T10:14:50.138Z,5.93
2019-04-28T10:17:18.598Z,5.80
2019-04-28T10:19:47.067Z,5.53
2019-04-28T10:22:15.531Z,5.73
2019-04-28T10:24:43.995Z,6.40
2019-04-28T10:27:12.498Z,5.97
2019-04-28T10:29:40.949Z,5.57
2019-04-28T10:32:09.439Z,6.77
2019-04-28T10:34:37.867Z,6.70
2019-04-28T10:37:08.285Z,7.20
2019-04-28T10:39:41.304Z,5.90
2019-04-28T10:42:09.766Z,6.73
2019-04-28T10:44:43.031Z,6.80
2019-04-28T10:47:11.507Z,6.47
2019-04-28T10:49:39.983Z,6.33
2019-04-28T10:52:09.331Z,6.60
2019-04-28T10:54:37.844Z,6.83
2019-04-28T10:57:06.353Z,6.03
2019-04-28T10:59:34.805Z,6.77
2019-04-28T11:02:03.243Z,5.17
2019-04-28T11:04:38.997Z,6.53
2019-04-28T11:07:09.449Z,6.13
2019-04-28T11:09:45.509Z,6.13
2019-04-28T11:12:24.481Z,5.60
2019-04-28T11:14:52.923Z,5.20
2019-04-28T11:17:22.502Z,6.20
2019-04-28T11:19:50.941Z,5.13
2019-04-28T11:22:19.461Z,4.90
2019-04-28T11:24:47.895Z,5.40
2019-04-28T11:27:16.710Z,5.33
2019-04-28T11:29:45.175Z,4.70
2019-04-28T11:32:15.275Z,3.80
2019-04-28T11:34:54.406Z,3.60
2019-04-28T11:37:22.845Z,3.60
2019-04-28T11:39:51.368Z,4.23
2019-04-28T11:42:19.826Z,4.23
2019-04-28T11:44:48.252Z,4.17
2019-04-28T11:47:21.323Z,4.23
2019-04-28T11:49:49.826Z,4.23
2019-04-28T11:52:18.361Z,3.97
2019-04-28T11:54:46.785Z,5.07
2019-04-28T11:57:15.250Z,4.43
2019-04-28T11:59:43.677Z,5.10
2019-04-28T12:02:12.106Z,5.57
2019-04-28T12:04:40.571Z,4.37
2019-04-28T12:07:09.683Z,3.77
2019-04-28T12:09:39.751Z,3.60
2019-04-28T12:12:12.295Z,2.47
2019-04-28T12:14:48.384Z,3.17
2019-04-28T12:17:35.149Z,2.87
2019-04-28T12:20:11.044Z,3.00
2019-04-28T12:22:39.644Z,3.03
2019-04-28T12:25:08.300Z,3.20
2019-04-28T12:27:36.828Z,2.63
2019-04-28T12:30:06.131Z,2.50
2019-04-28T12:32:34.560Z,2.30
2019-04-28T12:35:03.027Z,2.53
2019-04-28T12:37:31.463Z,3.10
2019-04-28T12:39:59.927Z,2.20
2019-04-28T12:42:28.415Z,2.10
2019-04-28T12:44:56.907Z,2.03
2019-04-28T12:47:25.338Z,2.37
2019-04-28T12:49:58.082Z,2.97
2019-04-28T12:52:26.531Z,2.60
2019-04-28T12:54:54.961Z,2.43
2019-04-28T12:57:23.432Z,2.93
2019-04-28T12:59:53.548Z,2.90
2019-04-28T13:02:23.615Z,3.30
2019-04-28T13:05:11.814Z,3.03
2019-04-28T13:07:40.254Z,2.90
2019-04-28T13:10:09.969Z,3.07
2019-04-28T13:12:38.405Z,2.97
2019-04-28T13:15:07.021Z,3.83
2019-04-28T13:17:35.473Z,3.23
2019-04-28T13:20:04.073Z,3.03
2019-04-28T13:22:32.526Z,3.33
2019-04-28T13:25:00.991Z,2.80
2019-04-28T13:27:29.416Z,3.20
2019-04-28T13:29:57.846Z,2.90
2019-04-28T13:32:26.327Z,3.00
2019-04-28T13:34:54.777Z,2.70
2019-04-28T13:37:23.230Z,3.23
2019-04-28T13:39:56.102Z,2.83
2019-04-28T13:42:24.568Z,2.13
2019-04-28T13:44:57.300Z,2.10
2019-04-28T13:47:25.750Z,2.13
2019-04-28T13:49:58.774Z,2.10
2019-04-28T13:52:27.271Z,2.20
2019-04-28T13:54:57.371Z,2.40
2019-04-28T13:57:25.789Z,1.80
2019-04-28T14:00:07.895Z,2.33
2019-04-28T14:02:40.733Z,2.30
2019-04-28T14:05:11.570Z,2.50
2019-04-28T14:07:40.038Z,2.40
2019-04-28T14:10:08.656Z,2.30
2019-04-28T14:12:37.088Z,2.50
2019-04-28T14:15:06.191Z,2.10
2019-04-28T14:17:34.613Z,2.17
2019-04-28T14:20:03.471Z,2.03
2019-04-28T14:22:31.929Z,1.73
2019-04-28T14:25:00.403Z,1.70
2019-04-28T14:27:28.863Z,1.93
2019-04-28T14:29:57.299Z,1.50
2019-04-28T14:32:25.759Z,1.50
2019-04-28T14:34:54.296Z,1.57
2019-04-28T14:37:22.748Z,1.57
2019-04-28T14:39:51.277Z,1.93
2019-04-28T14:42:19.697Z,2.13
2019-04-28T14:44:48.164Z,1.53
2019-04-28T14:47:16.588Z,1.60
2019-04-28T14:49:45.041Z,1.50
2019-04-28T14:52:13.470Z,1.63
2019-04-28T14:54:41.933Z,1.50
2019-04-28T14:57:10.367Z,1.77
2019-04-28T14:59:38.874Z,1.30
2019-04-28T15:02:11.618Z,1.90
2019-04-28T15:04:53.915Z,1.60
2019-04-28T15:07:41.921Z,1.60
2019-04-28T15:10:24.538Z,1.57
2019-04-28T15:12:53.001Z,1.30
2019-04-28T15:15:21.634Z,1.33
2019-04-28T15:17:50.095Z,1.63
2019-04-28T15:20:18.757Z,1.50
2019-04-28T15:22:47.192Z,1.80
2019-04-28T15:25:15.658Z,1.47
2019-04-28T15:27:44.085Z,1.57
2019-04-28T15:30:12.708Z,1.80
2019-04-28T15:32:41.175Z,1.47
2019-04-28T15:35:10.087Z,1.50
2019-04-28T15:37:38.535Z,1.70
2019-04-28T15:40:07.896Z,1.50
2019-04-28T15:42:36.352Z,1.47
2019-04-28T15:45:06.042Z,1.30
2019-04-28T15:47:34.492Z,1.30
2019-04-28T15:50:03.310Z,1.53
2019-04-28T15:52:31.737Z,1.70
2019-04-28T15:55:00.613Z,1.43
2019-04-28T15:57:29.036Z,1.63
2019-04-28T15:59:57.485Z,1.70
2019-04-28T16:02:25.919Z,1.90
2019-04-28T16:04:54.391Z,1.93
2019-04-28T16:07:24.949Z,1.70
2019-04-28T16:09:53.000Z,1.87
2019-04-28T16:12:21.424Z,2.00
2019-04-28T16:14:49.910Z,1.80
2019-04-28T16:17:20.063Z,1.90
2019-04-28T16:19:48.678Z,1.80
2019-04-28T16:22:17.093Z,1.60
2019-04-28T16:24:45.602Z,1.87
2019-04-28T16:27:14.065Z,1.63
2019-04-28T16:29:42.553Z,1.53
2019-04-28T16:32:11.094Z,2.57
2019-04-28T16:34:40.200Z,2.00
2019-04-28T16:37:08.630Z,2.03
2019-04-28T16:39:37.091Z,1.60
2019-04-28T16:42:05.629Z,2.00
2019-04-28T16:44:34.059Z,1.90
2019-04-28T16:47:02.534Z,1.70
2019-04-28T16:49:30.960Z,1.87
2019-04-28T16:51:59.408Z,1.80
2019-04-28T16:54:27.855Z,2.23
2019-04-28T16:57:03.730Z,1.80
2019-04-28T16:59:48.898Z,1.93
2019-04-28T17:02:18.994Z,1.90
2019-04-28T17:04:47.431Z,1.80
2019-04-28T17:07:15.875Z,1.80
2019-04-28T17:09:44.329Z,1.70
2019-04-28T17:12:12.822Z,1.80
2019-04-28T17:14:41.277Z,2.00
2019-04-28T17:17:10.379Z,2.43
2019-04-28T17:19:38.836Z,2.10
2019-04-28T17:22:07.302Z,2.07
2019-04-28T17:24:35.756Z,2.30
2019-04-28T17:27:04.307Z,2.20
2019-04-28T17:29:32.820Z,2.00
2019-04-28T17:32:01.296Z,1.90
2019-04-28T17:34:29.725Z,1.73
2019-04-28T17:36:58.177Z,1.87
2019-04-28T17:39:26.710Z,1.87
2019-04-28T17:41:55.226Z,1.80
2019-04-28T17:44:23.690Z,2.50
2019-04-28T17:46:53.020Z,2.20
2019-04-28T17:49:23.139Z,1.60
2019-04-28T17:51:51.667Z,1.63
2019-04-28T17:54:20.143Z,1.67
2019-04-28T17:56:48.689Z,1.93
2019-04-28T17:59:17.255Z,1.70
2019-04-28T18:01:53.375Z,1.93
2019-04-28T18:04:38.557Z,1.90
2019-04-28T18:07:11.375Z,1.93
2019-04-28T18:09:40.512Z,1.90
2019-04-28T18:12:08.968Z,2.17
2019-04-28T18:14:38.717Z,2.40
2019-04-28T18:17:25.138Z,2.30
2019-04-28T18:19:53.626Z,2.37
2019-04-28T18:22:22.058Z,2.33
2019-04-28T18:24:50.529Z,2.27
2019-04-28T18:27:18.959Z,2.00
2019-04-28T18:29:47.382Z,2.07
2019-04-28T18:32:29.343Z,2.10
2019-04-28T18:35:08.414Z,2.17
2019-04-28T18:37:38.522Z,2.27
2019-04-28T18:40:17.802Z,2.00
2019-04-28T18:43:02.507Z,2.07
2019-04-28T18:45:30.974Z,1.97
2019-04-28T18:47:59.427Z,2.10
2019-04-28T18:50:27.849Z,1.93
2019-04-28T18:52:56.309Z,2.27
2019-04-28T18:55:24.746Z,1.80
2019-04-28T18:57:53.201Z,2.33
2019-04-28T19:00:23.287Z,1.90
2019-04-28T19:02:51.748Z,2.37
2019-04-28T19:05:21.551Z,1.97
2019-04-28T19:07:57.586Z,2.27
2019-04-28T19:10:36.345Z,2.63
2019-04-28T19:13:06.418Z,2.70
2019-04-28T19:15:52.607Z,2.77
2019-04-28T19:18:31.825Z,2.90
2019-04-28T19:21:00.261Z,2.80
2019-04-28T19:23:28.726Z,2.53
2019-04-28T19:25:57.171Z,3.00
2019-04-28T19:28:25.608Z,2.83
2019-04-28T19:30:54.079Z,2.83
2019-04-28T19:33:22.534Z,2.50
2019-04-28T19:35:50.981Z,2.70
2019-04-28T19:38:19.432Z,3.03
2019-04-28T19:40:47.896Z,2.67
2019-04-28T19:43:16.367Z,2.60
2019-04-28T19:45:45.947Z,3.23
2019-04-28T19:48:14.400Z,2.97
2019-04-28T19:50:42.842Z,2.63
2019-04-28T19:53:11.327Z,2.73
2019-04-28T19:55:58.666Z,2.77
2019-04-28T19:58:31.452Z,2.70
2019-04-28T20:01:01.562Z,2.67
2019-04-28T20:03:30.082Z,3.03
2019-04-28T20:05:58.926Z,2.47
2019-04-28T20:08:27.443Z,2.50
2019-04-28T20:10:55.904Z,2.53
2019-04-28T20:13:24.337Z,2.57
2019-04-28T20:15:52.817Z,3.00
2019-04-28T20:18:21.255Z,3.30
2019-04-28T20:20:49.766Z,2.97
2019-04-28T20:23:18.208Z,3.03
2019-04-28T20:25:47.679Z,2.83
2019-04-28T20:28:16.173Z,3.67
2019-04-28T20:30:44.669Z,3.07
2019-04-28T20:33:13.160Z,2.90
2019-04-28T20:35:43.313Z,2.60
2019-04-28T20:38:16.086Z,2.93
2019-04-28T20:40:46.219Z,2.70
2019-04-28T20:43:19.104Z,2.60
2019-04-28T20:45:47.638Z,2.70
2019-04-28T20:48:16.097Z,2.13
2019-04-28T20:50:44.585Z,2.57
2019-04-28T20:53:13.043Z,2.57
2019-04-28T20:55:41.475Z,2.33
2019-04-28T20:58:10.844Z,2.47
2019-04-28T21:00:39.279Z,2.60
2019-04-28T21:03:07.809Z,2.60
2019-04-28T21:05:36.269Z,2.37
2019-04-28T21:08:04.726Z,2.60
2019-04-28T21:10:38.401Z,2.70
2019-04-28T21:13:03.507Z,2.20
2019-04-28T21:15:31.949Z,2.43
2019-04-28T21:18:00.787Z,2.30
2019-04-28T21:20:29.227Z,2.30
2019-04-28T21:22:57.717Z,2.47
2019-04-28T21:25:26.200Z,2.40
2019-04-28T21:27:54.620Z,2.20
2019-04-28T21:30:23.090Z,2.50
2019-04-28T21:32:51.547Z,2.30
2019-04-28T21:35:20.336Z,2.27
2019-04-28T21:37:48.794Z,2.43
2019-04-28T21:40:18.195Z,2.53
2019-04-28T21:42:54.255Z,2.20
2019-04-28T21:45:40.357Z,2.10
2019-04-28T21:48:09.207Z,2.10
2019-04-28T21:50:37.679Z,2.03
2019-04-28T21:53:06.125Z,2.33
2019-04-28T21:55:34.573Z,2.03
2019-04-28T21:58:03.042Z,2.30
2019-04-28T22:00:39.051Z,2.03
2019-04-28T22:03:07.907Z,2.10
2019-04-28T22:05:36.357Z,2.10
2019-04-28T22:08:04.870Z,2.63
2019-04-28T22:10:33.324Z,2.20
2019-04-28T22:13:01.758Z,2.03
2019-04-28T22:15:30.176Z,1.90
2019-04-28T22:17:58.643Z,1.90
2019-04-28T22:20:27.119Z,1.90
2019-04-28T22:22:56.877Z,1.77
2019-04-28T22:25:25.782Z,2.27
2019-04-28T22:27:54.243Z,1.80
2019-04-28T22:30:22.666Z,2.00
2019-04-28T22:32:51.116Z,1.97
2019-04-28T22:35:19.544Z,1.83
2019-04-28T22:37:48.016Z,2.00
2019-04-28T22:40:16.464Z,1.80
2019-04-28T22:42:45.238Z,2.20
2019-04-28T22:45:14.235Z,2.40
2019-04-28T22:47:42.670Z,2.40
2019-04-28T22:50:14.194Z,2.43
2019-04-28T22:52:42.625Z,2.30
2019-04-28T22:55:12.788Z,2.17
2019-04-28T22:57:59.250Z,2.00
2019-04-28T23:00:41.700Z,2.20
2019-04-28T23:03:13.322Z,2.13
2019-04-28T23:05:41.781Z,2.33
2019-04-28T23:08:11.144Z,1.83
2019-04-28T23:10:39.600Z,2.00
2019-04-28T23:13:08.041Z,2.47
2019-04-28T23:15:36.506Z,2.00
2019-04-28T23:18:04.969Z,3.03
2019-04-28T23:20:35.043Z,2.47
2019-04-28T23:23:05.152Z,2.40
2019-04-28T23:25:33.655Z,2.10
2019-04-28T23:28:02.120Z,2.60
2019-04-28T23:30:41.970Z,2.23
2019-04-28T23:33:11.194Z,2.30
2019-04-28T23:35:39.788Z,2.67
2019-04-28T23:38:08.230Z,3.13
2019-04-28T23:40:38.316Z,2.57
2019-04-28T23:43:22.084Z,2.63
2019-04-28T23:45:50.540Z,2.30
2019-04-28T23:48:19.001Z,2.60
2019-04-28T23:50:54.928Z,2.40
2019-04-28T23:53:41.701Z,2.60
2019-04-28T23:56:11.041Z,2.87
2019-04-28T23:58:39.588Z,2.60
